sensor_id;sensor_type;location;lat;lon;timestamp;temperature;humidity
34406;DHT22;20658;45.630;8.886;2023-04-03T00:00:40;9.80;58.20
34406;DHT22;20658;45.630;8.886;2023-04-03T00:03:14;9.80;58.40
34406;DHT22;20658;45.630;8.886;2023-04-03T00:05:42;9.70;58.50
34406;DHT22;20658;45.630;8.886;2023-04-03T00:08:15;9.70;58.40
34406;DHT22;20658;45.630;8.886;2023-04-03T00:10:44;9.70;58.20
34406;DHT22;20658;45.630;8.886;2023-04-03T00:13:19;9.60;58.10
34406;DHT22;20658;45.630;8.886;2023-04-03T00:15:52;9.60;58.60
34406;DHT22;20658;45.630;8.886;2023-04-03T00:18:25;9.50;58.90
34406;DHT22;20658;45.630;8.886;2023-04-03T00:21:00;9.50;58.90
34406;DHT22;20658;45.630;8.886;2023-04-03T00:23:28;9.50;59.70
34406;DHT22;20658;45.630;8.886;2023-04-03T00:26:01;9.40;59.90
34406;DHT22;20658;45.630;8.886;2023-04-03T00:28:37;9.70;59.90
34406;DHT22;20658;45.630;8.886;2023-04-03T00:31:10;9.30;59.80
34406;DHT22;20658;45.630;8.886;2023-04-03T00:33:43;9.30;59.90
34406;DHT22;20658;45.630;8.886;2023-04-03T00:36:17;9.30;60.70
34406;DHT22;20658;45.630;8.886;2023-04-03T00:38:51;9.20;60.50
34406;DHT22;20658;45.630;8.886;2023-04-03T00:41:24;9.20;60.00
34406;DHT22;20658;45.630;8.886;2023-04-03T00:43:59;9.10;59.80
34406;DHT22;20658;45.630;8.886;2023-04-03T00:46:27;9.20;59.00
34406;DHT22;20658;45.630;8.886;2023-04-03T00:48:56;9.40;58.30
34406;DHT22;20658;45.630;8.886;2023-04-03T00:51:29;9.40;58.20
34406;DHT22;20658;45.630;8.886;2023-04-03T00:54:05;9.20;58.50
34406;DHT22;20658;45.630;8.886;2023-04-03T00:56:40;9.10;58.30
34406;DHT22;20658;45.630;8.886;2023-04-03T00:59:12;9.10;58.60
34406;DHT22;20658;45.630;8.886;2023-04-03T01:01:48;9.10;58.20
34406;DHT22;20658;45.630;8.886;2023-04-03T01:04:27;9.10;58.10
34406;DHT22;20658;45.630;8.886;2023-04-03T01:07:04;9.10;58.60
34406;DHT22;20658;45.630;8.886;2023-04-03T01:09:40;9.10;58.80
34406;DHT22;20658;45.630;8.886;2023-04-03T01:12:15;9.00;58.90
34406;DHT22;20658;45.630;8.886;2023-04-03T01:14:45;9.40;59.40
34406;DHT22;20658;45.630;8.886;2023-04-03T01:17:37;9.00;59.20
34406;DHT22;20658;45.630;8.886;2023-04-03T01:20:40;9.00;59.30
34406;DHT22;20658;45.630;8.886;2023-04-03T01:26:22;8.80;58.50
34406;DHT22;20658;45.630;8.886;2023-04-03T01:28:55;8.80;58.50
34406;DHT22;20658;45.630;8.886;2023-04-03T01:31:40;8.80;58.60
34406;DHT22;20658;45.630;8.886;2023-04-03T01:34:19;8.80;58.60
34406;DHT22;20658;45.630;8.886;2023-04-03T01:36:53;8.80;58.50
34406;DHT22;20658;45.630;8.886;2023-04-03T01:39:26;8.70;58.50
34406;DHT22;20658;45.630;8.886;2023-04-03T01:41:55;8.80;58.70
34406;DHT22;20658;45.630;8.886;2023-04-03T01:44:35;9.30;59.00
34406;DHT22;20658;45.630;8.886;2023-04-03T01:47:06;8.60;58.90
34406;DHT22;20658;45.630;8.886;2023-04-03T01:49:36;8.60;58.90
34406;DHT22;20658;45.630;8.886;2023-04-03T01:52:05;8.50;58.70
34406;DHT22;20658;45.630;8.886;2023-04-03T01:54:39;8.90;58.80
34406;DHT22;20658;45.630;8.886;2023-04-03T01:57:07;8.50;58.70
34406;DHT22;20658;45.630;8.886;2023-04-03T01:59:35;8.50;58.80
34406;DHT22;20658;45.630;8.886;2023-04-03T02:02:10;8.50;59.10
34406;DHT22;20658;45.630;8.886;2023-04-03T02:04:46;8.50;59.10
34406;DHT22;20658;45.630;8.886;2023-04-03T02:07:19;8.40;59.00
34406;DHT22;20658;45.630;8.886;2023-04-03T02:09:53;8.50;59.20
34406;DHT22;20658;45.630;8.886;2023-04-03T02:12:26;8.40;59.50
34406;DHT22;20658;45.630;8.886;2023-04-03T02:14:59;8.40;59.70
34406;DHT22;20658;45.630;8.886;2023-04-03T02:17:29;8.30;59.60
34406;DHT22;20658;45.630;8.886;2023-04-03T02:20:03;8.30;59.70
34406;DHT22;20658;45.630;8.886;2023-04-03T02:22:37;8.30;59.60
34406;DHT22;20658;45.630;8.886;2023-04-03T02:25:11;8.20;59.50
34406;DHT22;20658;45.630;8.886;2023-04-03T02:27:40;8.20;60.20
34406;DHT22;20658;45.630;8.886;2023-04-03T02:30:09;8.30;60.70
34406;DHT22;20658;45.630;8.886;2023-04-03T02:32:44;8.30;60.60
34406;DHT22;20658;45.630;8.886;2023-04-03T02:35:18;8.30;60.60
34406;DHT22;20658;45.630;8.886;2023-04-03T02:37:54;8.50;60.80
34406;DHT22;20658;45.630;8.886;2023-04-03T02:40:28;8.20;61.00
34406;DHT22;20658;45.630;8.886;2023-04-03T02:42:56;8.20;61.30
34406;DHT22;20658;45.630;8.886;2023-04-03T02:45:29;8.20;61.00
34406;DHT22;20658;45.630;8.886;2023-04-03T02:48:05;8.10;61.00
34406;DHT22;20658;45.630;8.886;2023-04-03T02:50:38;8.10;61.40
34406;DHT22;20658;45.630;8.886;2023-04-03T02:53:11;8.00;61.50
34406;DHT22;20658;45.630;8.886;2023-04-03T02:55:45;8.00;61.90
34406;DHT22;20658;45.630;8.886;2023-04-03T02:58:18;8.00;62.40
34406;DHT22;20658;45.630;8.886;2023-04-03T03:00:55;7.90;62.20
34406;DHT22;20658;45.630;8.886;2023-04-03T03:03:30;7.90;62.60
34406;DHT22;20658;45.630;8.886;2023-04-03T03:06:03;7.90;62.90
34406;DHT22;20658;45.630;8.886;2023-04-03T03:08:37;7.90;62.50
34406;DHT22;20658;45.630;8.886;2023-04-03T03:11:11;7.80;62.20
34406;DHT22;20658;45.630;8.886;2023-04-03T03:13:44;8.10;62.00
34406;DHT22;20658;45.630;8.886;2023-04-03T03:16:18;7.70;61.30
34406;DHT22;20658;45.630;8.886;2023-04-03T03:18:52;7.70;61.50
34406;DHT22;20658;45.630;8.886;2023-04-03T03:21:26;7.70;61.50
34406;DHT22;20658;45.630;8.886;2023-04-03T03:24:01;7.70;61.30
34406;DHT22;20658;45.630;8.886;2023-04-03T03:26:34;7.60;61.40
34406;DHT22;20658;45.630;8.886;2023-04-03T03:29:07;7.60;61.60
34406;DHT22;20658;45.630;8.886;2023-04-03T03:31:41;7.60;61.80
34406;DHT22;20658;45.630;8.886;2023-04-03T03:34:16;7.70;61.80
34406;DHT22;20658;45.630;8.886;2023-04-03T03:36:49;7.60;61.80
34406;DHT22;20658;45.630;8.886;2023-04-03T03:39:23;7.60;61.40
34406;DHT22;20658;45.630;8.886;2023-04-03T03:41:56;7.90;61.60
34406;DHT22;20658;45.630;8.886;2023-04-03T03:44:29;7.50;61.30
34406;DHT22;20658;45.630;8.886;2023-04-03T03:46:58;7.50;60.90
34406;DHT22;20658;45.630;8.886;2023-04-03T03:49:33;7.50;61.60
34406;DHT22;20658;45.630;8.886;2023-04-03T03:52:07;7.50;61.10
34406;DHT22;20658;45.630;8.886;2023-04-03T03:54:37;7.50;60.00
34406;DHT22;20658;45.630;8.886;2023-04-03T03:57:10;7.50;60.90
34406;DHT22;20658;45.630;8.886;2023-04-03T03:59:39;7.50;61.40
34406;DHT22;20658;45.630;8.886;2023-04-03T04:02:08;7.40;60.70
34406;DHT22;20658;45.630;8.886;2023-04-03T04:04:43;7.80;60.60
34406;DHT22;20658;45.630;8.886;2023-04-03T04:07:17;7.60;60.80
34406;DHT22;20658;45.630;8.886;2023-04-03T04:09:51;7.30;60.20
34406;DHT22;20658;45.630;8.886;2023-04-03T04:12:19;7.70;60.10
34406;DHT22;20658;45.630;8.886;2023-04-03T04:14:53;7.30;60.20
34406;DHT22;20658;45.630;8.886;2023-04-03T04:17:28;7.30;60.40
34406;DHT22;20658;45.630;8.886;2023-04-03T04:20:04;7.30;60.80
34406;DHT22;20658;45.630;8.886;2023-04-03T04:22:33;7.20;60.80
34406;DHT22;20658;45.630;8.886;2023-04-03T04:25:07;7.20;60.70
34406;DHT22;20658;45.630;8.886;2023-04-03T04:27:38;7.10;61.40
34406;DHT22;20658;45.630;8.886;2023-04-03T04:30:08;7.10;61.80
34406;DHT22;20658;45.630;8.886;2023-04-03T04:32:38;7.10;61.50
34406;DHT22;20658;45.630;8.886;2023-04-03T04:35:08;7.10;61.60
34406;DHT22;20658;45.630;8.886;2023-04-03T04:37:40;7.00;61.30
34406;DHT22;20658;45.630;8.886;2023-04-03T04:40:09;7.00;61.10
34406;DHT22;20658;45.630;8.886;2023-04-03T04:42:38;7.00;60.80
34406;DHT22;20658;45.630;8.886;2023-04-03T04:45:12;7.00;60.40
34406;DHT22;20658;45.630;8.886;2023-04-03T04:47:47;7.00;60.50
34406;DHT22;20658;45.630;8.886;2023-04-03T04:50:25;7.00;61.60
34406;DHT22;20658;45.630;8.886;2023-04-03T04:52:55;6.90;62.30
34406;DHT22;20658;45.630;8.886;2023-04-03T04:55:23;6.80;62.90
34406;DHT22;20658;45.630;8.886;2023-04-03T04:57:51;6.80;63.50
34406;DHT22;20658;45.630;8.886;2023-04-03T05:00:21;6.80;63.60
34406;DHT22;20658;45.630;8.886;2023-04-03T05:02:50;6.80;64.30
34406;DHT22;20658;45.630;8.886;2023-04-03T05:05:19;6.80;64.40
34406;DHT22;20658;45.630;8.886;2023-04-03T05:07:54;6.70;64.60
34406;DHT22;20658;45.630;8.886;2023-04-03T05:10:27;6.80;65.40
34406;DHT22;20658;45.630;8.886;2023-04-03T05:12:56;6.80;65.30
34406;DHT22;20658;45.630;8.886;2023-04-03T05:15:29;6.70;65.70
34406;DHT22;20658;45.630;8.886;2023-04-03T05:18:03;6.80;65.10
34406;DHT22;20658;45.630;8.886;2023-04-03T05:20:37;6.90;64.70
34406;DHT22;20658;45.630;8.886;2023-04-03T05:23:12;6.90;63.70
34406;DHT22;20658;45.630;8.886;2023-04-03T05:25:46;6.90;63.20
34406;DHT22;20658;45.630;8.886;2023-04-03T05:28:21;6.90;63.20
34406;DHT22;20658;45.630;8.886;2023-04-03T05:30:53;6.90;63.10
34406;DHT22;20658;45.630;8.886;2023-04-03T05:33:32;7.20;63.00
34406;DHT22;20658;45.630;8.886;2023-04-03T05:36:09;6.90;62.90
34406;DHT22;20658;45.630;8.886;2023-04-03T05:38:47;7.00;63.10
34406;DHT22;20658;45.630;8.886;2023-04-03T05:41:20;7.00;63.20
34406;DHT22;20658;45.630;8.886;2023-04-03T05:43:49;7.00;63.90
34406;DHT22;20658;45.630;8.886;2023-04-03T05:46:24;7.00;64.70
34406;DHT22;20658;45.630;8.886;2023-04-03T05:49:02;7.10;64.30
34406;DHT22;20658;45.630;8.886;2023-04-03T05:51:38;7.10;63.30
34406;DHT22;20658;45.630;8.886;2023-04-03T05:54:30;7.20;63.70
34406;DHT22;20658;45.630;8.886;2023-04-03T05:57:10;7.30;63.30
34406;DHT22;20658;45.630;8.886;2023-04-03T05:59:40;7.50;62.50
34406;DHT22;20658;45.630;8.886;2023-04-03T06:02:15;7.60;62.00
34406;DHT22;20658;45.630;8.886;2023-04-03T06:04:51;8.10;61.30
34406;DHT22;20658;45.630;8.886;2023-04-03T06:07:25;8.00;60.20
34406;DHT22;20658;45.630;8.886;2023-04-03T06:09:57;8.30;59.20
34406;DHT22;20658;45.630;8.886;2023-04-03T06:12:30;8.60;60.30
34406;DHT22;20658;45.630;8.886;2023-04-03T06:15:04;8.60;60.90
34406;DHT22;20658;45.630;8.886;2023-04-03T06:17:40;8.80;58.60
34406;DHT22;20658;45.630;8.886;2023-04-03T06:20:13;9.10;57.10
34406;DHT22;20658;45.630;8.886;2023-04-03T06:22:42;9.40;55.70
34406;DHT22;20658;45.630;8.886;2023-04-03T06:25:17;9.40;54.10
34406;DHT22;20658;45.630;8.886;2023-04-03T06:27:50;9.60;52.40
34406;DHT22;20658;45.630;8.886;2023-04-03T06:30:23;9.80;52.50
34406;DHT22;20658;45.630;8.886;2023-04-03T06:32:57;9.90;51.70
34406;DHT22;20658;45.630;8.886;2023-04-03T06:35:31;10.20;51.30
34406;DHT22;20658;45.630;8.886;2023-04-03T06:38:25;10.40;50.60
34406;DHT22;20658;45.630;8.886;2023-04-03T06:41:00;10.70;49.90
34406;DHT22;20658;45.630;8.886;2023-04-03T06:43:33;10.90;50.00
34406;DHT22;20658;45.630;8.886;2023-04-03T06:46:06;11.40;49.90
34406;DHT22;20658;45.630;8.886;2023-04-03T06:48:41;11.50;49.40
34406;DHT22;20658;45.630;8.886;2023-04-03T06:51:18;11.50;49.10
34406;DHT22;20658;45.630;8.886;2023-04-03T06:53:54;12.00;48.50
34406;DHT22;20658;45.630;8.886;2023-04-03T06:56:26;12.00;48.00
34406;DHT22;20658;45.630;8.886;2023-04-03T06:59:00;12.40;47.50
34406;DHT22;20658;45.630;8.886;2023-04-03T07:01:33;12.50;48.80
34406;DHT22;20658;45.630;8.886;2023-04-03T07:04:07;12.70;48.10
34406;DHT22;20658;45.630;8.886;2023-04-03T07:06:40;12.80;48.00
34406;DHT22;20658;45.630;8.886;2023-04-03T07:09:09;12.80;47.90
34406;DHT22;20658;45.630;8.886;2023-04-03T07:11:44;12.90;48.00
34406;DHT22;20658;45.630;8.886;2023-04-03T07:14:12;13.30;48.60
34406;DHT22;20658;45.630;8.886;2023-04-03T07:16:46;13.10;50.10
34406;DHT22;20658;45.630;8.886;2023-04-03T07:19:14;12.80;50.60
34406;DHT22;20658;45.630;8.886;2023-04-03T07:21:47;13.10;51.10
34406;DHT22;20658;45.630;8.886;2023-04-03T07:24:20;13.10;51.60
34406;DHT22;20658;45.630;8.886;2023-04-03T07:26:55;13.20;51.80
34406;DHT22;20658;45.630;8.886;2023-04-03T07:29:28;13.20;52.10
34406;DHT22;20658;45.630;8.886;2023-04-03T07:32:03;13.30;52.50
34406;DHT22;20658;45.630;8.886;2023-04-03T07:34:37;13.50;52.20
34406;DHT22;20658;45.630;8.886;2023-04-03T07:37:10;14.00;51.80
34406;DHT22;20658;45.630;8.886;2023-04-03T07:39:44;13.90;51.30
34406;DHT22;20658;45.630;8.886;2023-04-03T07:42:19;14.20;50.70
34406;DHT22;20658;45.630;8.886;2023-04-03T07:44:53;14.40;50.20
34406;DHT22;20658;45.630;8.886;2023-04-03T07:47:26;14.60;49.70
34406;DHT22;20658;45.630;8.886;2023-04-03T07:49:59;15.10;49.60
34406;DHT22;20658;45.630;8.886;2023-04-03T07:52:33;14.90;49.00
34406;DHT22;20658;45.630;8.886;2023-04-03T07:55:07;14.90;49.10
34406;DHT22;20658;45.630;8.886;2023-04-03T07:57:42;15.00;49.00
34406;DHT22;20658;45.630;8.886;2023-04-03T08:00:17;15.20;48.70
34406;DHT22;20658;45.630;8.886;2023-04-03T08:02:51;15.30;48.50
34406;DHT22;20658;45.630;8.886;2023-04-03T08:05:24;15.50;47.40
34406;DHT22;20658;45.630;8.886;2023-04-03T08:07:58;15.40;47.50
34406;DHT22;20658;45.630;8.886;2023-04-03T08:10:31;15.40;47.20
34406;DHT22;20658;45.630;8.886;2023-04-03T08:13:02;15.40;47.70
34406;DHT22;20658;45.630;8.886;2023-04-03T08:15:36;15.50;47.80
34406;DHT22;20658;45.630;8.886;2023-04-03T08:18:10;15.60;47.80
34406;DHT22;20658;45.630;8.886;2023-04-03T08:20:44;15.60;47.80
34406;DHT22;20658;45.630;8.886;2023-04-03T08:23:18;15.60;48.30
34406;DHT22;20658;45.630;8.886;2023-04-03T08:25:51;16.00;48.10
34406;DHT22;20658;45.630;8.886;2023-04-03T08:28:26;16.00;48.00
34406;DHT22;20658;45.630;8.886;2023-04-03T08:31:02;16.10;47.90
34406;DHT22;20658;45.630;8.886;2023-04-03T08:33:39;16.30;47.80
34406;DHT22;20658;45.630;8.886;2023-04-03T08:36:19;16.20;47.40
34406;DHT22;20658;45.630;8.886;2023-04-03T08:38:54;16.00;47.90
34406;DHT22;20658;45.630;8.886;2023-04-03T08:41:32;15.90;48.00
34406;DHT22;20658;45.630;8.886;2023-04-03T08:44:14;16.10;48.50
34406;DHT22;20658;45.630;8.886;2023-04-03T08:47:02;16.40;48.20
34406;DHT22;20658;45.630;8.886;2023-04-03T08:49:41;16.70;47.50
34406;DHT22;20658;45.630;8.886;2023-04-03T08:52:16;16.70;47.30
34406;DHT22;20658;45.630;8.886;2023-04-03T08:54:54;17.10;47.20
34406;DHT22;20658;45.630;8.886;2023-04-03T08:57:30;16.70;47.10
34406;DHT22;20658;45.630;8.886;2023-04-03T09:00:16;16.90;47.20
34406;DHT22;20658;45.630;8.886;2023-04-03T09:02:52;16.90;47.00
34406;DHT22;20658;45.630;8.886;2023-04-03T09:05:35;17.10;46.50
34406;DHT22;20658;45.630;8.886;2023-04-03T09:08:22;16.90;46.60
34406;DHT22;20658;45.630;8.886;2023-04-03T09:10:59;17.00;46.60
34406;DHT22;20658;45.630;8.886;2023-04-03T09:13:44;16.70;46.20
34406;DHT22;20658;45.630;8.886;2023-04-03T09:16:35;17.20;46.60
34406;DHT22;20658;45.630;8.886;2023-04-03T09:19:18;17.10;46.40
34406;DHT22;20658;45.630;8.886;2023-04-03T09:21:56;17.10;46.00
34406;DHT22;20658;45.630;8.886;2023-04-03T09:24:31;17.10;46.30
34406;DHT22;20658;45.630;8.886;2023-04-03T09:27:08;17.50;46.00
34406;DHT22;20658;45.630;8.886;2023-04-03T09:29:44;17.60;45.30
34406;DHT22;20658;45.630;8.886;2023-04-03T09:32:25;17.50;44.60
34406;DHT22;20658;45.630;8.886;2023-04-03T09:35:03;17.40;45.00
34406;DHT22;20658;45.630;8.886;2023-04-03T09:37:40;17.30;45.40
34406;DHT22;20658;45.630;8.886;2023-04-03T09:40:35;17.40;45.00
34406;DHT22;20658;45.630;8.886;2023-04-03T09:43:25;17.30;45.10
34406;DHT22;20658;45.630;8.886;2023-04-03T09:46:29;17.40;45.00
34406;DHT22;20658;45.630;8.886;2023-04-03T09:49:02;17.50;45.30
34406;DHT22;20658;45.630;8.886;2023-04-03T09:51:37;17.90;45.20
34406;DHT22;20658;45.630;8.886;2023-04-03T09:54:31;18.20;44.70
34406;DHT22;20658;45.630;8.886;2023-04-03T09:57:10;18.20;44.10
34406;DHT22;20658;45.630;8.886;2023-04-03T09:59:47;18.30;43.20
34406;DHT22;20658;45.630;8.886;2023-04-03T10:02:36;18.30;43.40
34406;DHT22;20658;45.630;8.886;2023-04-03T10:05:29;18.30;42.80
34406;DHT22;20658;45.630;8.886;2023-04-03T10:08:14;18.30;43.10
34406;DHT22;20658;45.630;8.886;2023-04-03T10:11:11;18.50;42.80
34406;DHT22;20658;45.630;8.886;2023-04-03T10:13:52;18.60;42.90
34406;DHT22;20658;45.630;8.886;2023-04-03T10:16:32;18.60;42.40
34406;DHT22;20658;45.630;8.886;2023-04-03T10:19:33;18.90;42.50
34406;DHT22;20658;45.630;8.886;2023-04-03T10:22:30;19.10;42.20
34406;DHT22;20658;45.630;8.886;2023-04-03T10:25:14;19.20;41.60
34406;DHT22;20658;45.630;8.886;2023-04-03T10:27:59;19.30;41.70
34406;DHT22;20658;45.630;8.886;2023-04-03T10:30:40;19.40;41.60
34406;DHT22;20658;45.630;8.886;2023-04-03T10:33:28;19.40;41.50
34406;DHT22;20658;45.630;8.886;2023-04-03T10:36:18;19.60;40.60
34406;DHT22;20658;45.630;8.886;2023-04-03T10:39:04;19.60;40.70
34406;DHT22;20658;45.630;8.886;2023-04-03T10:41:56;19.50;41.10
34406;DHT22;20658;45.630;8.886;2023-04-03T10:44:42;19.50;41.30
34406;DHT22;20658;45.630;8.886;2023-04-03T10:47:58;19.60;40.60
34406;DHT22;20658;45.630;8.886;2023-04-03T10:50:42;19.20;41.40
34406;DHT22;20658;45.630;8.886;2023-04-03T10:53:23;19.20;41.20
34406;DHT22;20658;45.630;8.886;2023-04-03T10:56:11;19.50;40.90
34406;DHT22;20658;45.630;8.886;2023-04-03T10:58:50;19.70;40.10
34406;DHT22;20658;45.630;8.886;2023-04-03T11:01:31;19.40;40.20
34406;DHT22;20658;45.630;8.886;2023-04-03T11:04:06;19.50;41.70
34406;DHT22;20658;45.630;8.886;2023-04-03T11:06:44;19.80;41.30
34406;DHT22;20658;45.630;8.886;2023-04-03T11:09:23;20.00;41.40
34406;DHT22;20658;45.630;8.886;2023-04-03T11:12:05;19.90;41.60
34406;DHT22;20658;45.630;8.886;2023-04-03T11:14:43;19.90;41.40
34406;DHT22;20658;45.630;8.886;2023-04-03T11:17:28;19.60;41.20
34406;DHT22;20658;45.630;8.886;2023-04-03T11:20:10;19.50;41.10
34406;DHT22;20658;45.630;8.886;2023-04-03T11:22:51;19.50;41.40
34406;DHT22;20658;45.630;8.886;2023-04-03T11:25:30;19.30;40.70
34406;DHT22;20658;45.630;8.886;2023-04-03T11:28:13;19.40;40.90
34406;DHT22;20658;45.630;8.886;2023-04-03T11:30:50;19.90;39.90
34406;DHT22;20658;45.630;8.886;2023-04-03T11:33:39;20.10;40.30
34406;DHT22;20658;45.630;8.886;2023-04-03T11:36:21;20.50;39.90
34406;DHT22;20658;45.630;8.886;2023-04-03T11:38:59;20.60;39.30
34406;DHT22;20658;45.630;8.886;2023-04-03T11:41:39;20.60;39.00
34406;DHT22;20658;45.630;8.886;2023-04-03T11:44:31;20.50;38.60
34406;DHT22;20658;45.630;8.886;2023-04-03T11:47:09;20.60;38.70
34406;DHT22;20658;45.630;8.886;2023-04-03T11:49:55;20.60;38.90
34406;DHT22;20658;45.630;8.886;2023-04-03T11:52:56;20.30;38.30
34406;DHT22;20658;45.630;8.886;2023-04-03T11:55:45;19.90;38.70
34406;DHT22;20658;45.630;8.886;2023-04-03T11:58:29;20.00;38.70
34406;DHT22;20658;45.630;8.886;2023-04-03T12:01:09;20.30;38.50
34406;DHT22;20658;45.630;8.886;2023-04-03T12:04:08;20.60;37.70
34406;DHT22;20658;45.630;8.886;2023-04-03T12:07:13;20.40;37.10
34406;DHT22;20658;45.630;8.886;2023-04-03T12:09:58;20.60;37.90
34406;DHT22;20658;45.630;8.886;2023-04-03T12:12:38;20.80;37.40
34406;DHT22;20658;45.630;8.886;2023-04-03T12:18:57;20.60;36.70
34406;DHT22;20658;45.630;8.886;2023-04-03T12:22:06;20.70;37.80
34406;DHT22;20658;45.630;8.886;2023-04-03T12:24:45;20.90;39.50
34406;DHT22;20658;45.630;8.886;2023-04-03T12:27:25;20.80;38.20
34406;DHT22;20658;45.630;8.886;2023-04-03T12:30:06;21.10;38.40
34406;DHT22;20658;45.630;8.886;2023-04-03T12:33:10;21.30;37.20
34406;DHT22;20658;45.630;8.886;2023-04-03T12:35:58;21.10;36.90
34406;DHT22;20658;45.630;8.886;2023-04-03T12:38:56;21.10;37.80
34406;DHT22;20658;45.630;8.886;2023-04-03T12:41:37;21.30;38.20
34406;DHT22;20658;45.630;8.886;2023-04-03T12:44:33;21.20;37.70
34406;DHT22;20658;45.630;8.886;2023-04-03T12:47:23;21.30;37.90
34406;DHT22;20658;45.630;8.886;2023-04-03T12:50:01;21.40;37.80
34406;DHT22;20658;45.630;8.886;2023-04-03T12:52:41;21.20;38.00
34406;DHT22;20658;45.630;8.886;2023-04-03T12:55:18;21.10;37.70
34406;DHT22;20658;45.630;8.886;2023-04-03T12:57:53;21.10;38.00
34406;DHT22;20658;45.630;8.886;2023-04-03T13:00:33;20.70;38.20
34406;DHT22;20658;45.630;8.886;2023-04-03T13:03:22;20.80;37.80
34406;DHT22;20658;45.630;8.886;2023-04-03T13:06:00;21.10;37.90
34406;DHT22;20658;45.630;8.886;2023-04-03T13:08:36;21.30;37.70
34406;DHT22;20658;45.630;8.886;2023-04-03T13:11:11;21.20;37.90
34406;DHT22;20658;45.630;8.886;2023-04-03T13:13:54;21.20;37.80
34406;DHT22;20658;45.630;8.886;2023-04-03T13:16:29;21.20;37.90
34406;DHT22;20658;45.630;8.886;2023-04-03T13:19:03;21.30;37.60
34406;DHT22;20658;45.630;8.886;2023-04-03T13:21:36;21.30;37.60
34406;DHT22;20658;45.630;8.886;2023-04-03T13:24:11;21.40;37.40
34406;DHT22;20658;45.630;8.886;2023-04-03T13:26:44;21.50;37.20
34406;DHT22;20658;45.630;8.886;2023-04-03T13:29:22;21.50;37.50
34406;DHT22;20658;45.630;8.886;2023-04-03T13:31:59;21.40;37.40
34406;DHT22;20658;45.630;8.886;2023-04-03T13:34:37;21.10;37.20
34406;DHT22;20658;45.630;8.886;2023-04-03T13:37:20;21.10;36.80
34406;DHT22;20658;45.630;8.886;2023-04-03T13:40:03;21.10;36.60
34406;DHT22;20658;45.630;8.886;2023-04-03T13:42:43;21.10;36.60
34406;DHT22;20658;45.630;8.886;2023-04-03T13:45:20;21.30;36.90
34406;DHT22;20658;45.630;8.886;2023-04-03T13:47:52;21.40;37.00
34406;DHT22;20658;45.630;8.886;2023-04-03T13:50:27;21.40;36.70
34406;DHT22;20658;45.630;8.886;2023-04-03T13:53:03;21.50;36.90
34406;DHT22;20658;45.630;8.886;2023-04-03T13:56:00;21.50;36.90
34406;DHT22;20658;45.630;8.886;2023-04-03T13:59:02;21.60;36.70
34406;DHT22;20658;45.630;8.886;2023-04-03T14:01:42;21.40;37.20
34406;DHT22;20658;45.630;8.886;2023-04-03T14:04:19;21.40;37.10
34406;DHT22;20658;45.630;8.886;2023-04-03T14:06:55;21.50;36.90
34406;DHT22;20658;45.630;8.886;2023-04-03T14:09:25;21.30;36.30
34406;DHT22;20658;45.630;8.886;2023-04-03T14:11:58;21.40;37.00
34406;DHT22;20658;45.630;8.886;2023-04-03T14:14:37;21.50;36.40
34406;DHT22;20658;45.630;8.886;2023-04-03T14:17:15;21.00;36.00
34406;DHT22;20658;45.630;8.886;2023-04-03T14:19:50;21.00;36.40
34406;DHT22;20658;45.630;8.886;2023-04-03T14:22:26;21.10;36.00
34406;DHT22;20658;45.630;8.886;2023-04-03T14:24:57;21.10;36.10
34406;DHT22;20658;45.630;8.886;2023-04-03T14:27:35;21.10;36.10
34406;DHT22;20658;45.630;8.886;2023-04-03T14:30:15;20.60;36.70
34406;DHT22;20658;45.630;8.886;2023-04-03T14:32:50;20.20;36.40
34406;DHT22;20658;45.630;8.886;2023-04-03T14:35:23;20.20;36.50
34406;DHT22;20658;45.630;8.886;2023-04-03T14:37:53;20.20;37.80
34406;DHT22;20658;45.630;8.886;2023-04-03T14:40:24;20.10;38.30
34406;DHT22;20658;45.630;8.886;2023-04-03T14:43:00;19.80;38.70
34406;DHT22;20658;45.630;8.886;2023-04-03T14:45:34;19.40;39.10
34406;DHT22;20658;45.630;8.886;2023-04-03T14:48:03;19.40;39.60
34406;DHT22;20658;45.630;8.886;2023-04-03T14:50:36;19.40;39.60
34406;DHT22;20658;45.630;8.886;2023-04-03T14:53:12;19.30;39.40
34406;DHT22;20658;45.630;8.886;2023-04-03T14:55:43;19.60;38.80
34406;DHT22;20658;45.630;8.886;2023-04-03T14:58:15;19.90;38.80
34406;DHT22;20658;45.630;8.886;2023-04-03T15:00:49;19.80;38.50
34406;DHT22;20658;45.630;8.886;2023-04-03T15:03:23;19.70;39.20
34406;DHT22;20658;45.630;8.886;2023-04-03T15:05:56;19.90;39.00
34406;DHT22;20658;45.630;8.886;2023-04-03T15:08:27;19.90;38.60
34406;DHT22;20658;45.630;8.886;2023-04-03T15:10:57;19.90;39.00
34406;DHT22;20658;45.630;8.886;2023-04-03T15:13:33;20.00;39.00
34406;DHT22;20658;45.630;8.886;2023-04-03T15:16:14;19.90;39.00
34406;DHT22;20658;45.630;8.886;2023-04-03T15:18:49;20.00;39.00
34406;DHT22;20658;45.630;8.886;2023-04-03T15:21:17;19.90;39.00
34406;DHT22;20658;45.630;8.886;2023-04-03T15:23:50;19.80;38.90
34406;DHT22;20658;45.630;8.886;2023-04-03T15:26:19;19.70;39.40
34406;DHT22;20658;45.630;8.886;2023-04-03T15:28:53;19.60;39.70
34406;DHT22;20658;45.630;8.886;2023-04-03T15:31:22;19.70;40.10
34406;DHT22;20658;45.630;8.886;2023-04-03T15:33:55;19.70;39.70
34406;DHT22;20658;45.630;8.886;2023-04-03T15:36:29;19.70;40.00
34406;DHT22;20658;45.630;8.886;2023-04-03T15:39:02;19.70;40.00
34406;DHT22;20658;45.630;8.886;2023-04-03T15:41:35;19.50;40.50
34406;DHT22;20658;45.630;8.886;2023-04-03T15:44:10;19.60;40.40
34406;DHT22;20658;45.630;8.886;2023-04-03T15:46:44;19.00;41.50
34406;DHT22;20658;45.630;8.886;2023-04-03T15:49:18;18.60;42.40
34406;DHT22;20658;45.630;8.886;2023-04-03T15:51:52;18.40;43.10
34406;DHT22;20658;45.630;8.886;2023-04-03T15:54:25;18.00;43.60
34406;DHT22;20658;45.630;8.886;2023-04-03T15:57:01;17.90;44.00
34406;DHT22;20658;45.630;8.886;2023-04-03T15:59:35;17.80;44.10
34406;DHT22;20658;45.630;8.886;2023-04-03T16:02:10;17.60;44.30
34406;DHT22;20658;45.630;8.886;2023-04-03T16:04:45;17.60;44.60
34406;DHT22;20658;45.630;8.886;2023-04-03T16:07:19;17.80;43.90
34406;DHT22;20658;45.630;8.886;2023-04-03T16:09:52;17.90;43.90
34406;DHT22;20658;45.630;8.886;2023-04-03T16:12:25;18.10;43.50
34406;DHT22;20658;45.630;8.886;2023-04-03T16:15:00;18.30;43.20
34406;DHT22;20658;45.630;8.886;2023-04-03T16:17:36;18.20;42.90
34406;DHT22;20658;45.630;8.886;2023-04-03T16:20:11;18.30;42.80
34406;DHT22;20658;45.630;8.886;2023-04-03T16:22:45;18.50;42.50
34406;DHT22;20658;45.630;8.886;2023-04-03T16:25:18;18.50;42.20
34406;DHT22;20658;45.630;8.886;2023-04-03T16:27:52;18.40;42.50
34406;DHT22;20658;45.630;8.886;2023-04-03T16:30:26;18.30;42.80
34406;DHT22;20658;45.630;8.886;2023-04-03T16:33:00;18.10;43.00
34406;DHT22;20658;45.630;8.886;2023-04-03T16:35:34;17.90;43.30
34406;DHT22;20658;45.630;8.886;2023-04-03T16:38:07;17.80;43.30
34406;DHT22;20658;45.630;8.886;2023-04-03T16:40:41;17.60;43.40
34406;DHT22;20658;45.630;8.886;2023-04-03T16:43:15;17.50;43.70